sensor_id;sensor_type;location;lat;lon;timestamp;P1;durP1;ratioP1;P2;durP2;ratioP2
9970;SDS011;5026;51.494;11.974;2023-12-07T00:02:14;18.77;;;12.20;;
9970;SDS011;5026;51.494;11.974;2023-12-07T00:04:41;18.40;;;12.07;;
9970;SDS011;5026;51.494;11.974;2023-12-07T00:07:08;21.13;;;12.53;;
9970;SDS011;5026;51.494;11.974;2023-12-07T00:09:36;18.63;;;12.33;;
9970;SDS011;5026;51.494;11.974;2023-12-07T00:12:03;20.75;;;12.15;;
9970;SDS011;5026;51.494;11.974;2023-12-07T00:14:31;21.33;;;12.20;;
9970;SDS011;5026;51.494;11.974;2023-12-07T00:16:58;17.90;;;11.93;;
9970;SDS011;5026;51.494;11.974;2023-12-07T00:19:25;17.93;;;11.83;;
9970;SDS011;5026;51.494;11.974;2023-12-07T00:21:52;18.80;;;11.90;;
9970;SDS011;5026;51.494;11.974;2023-12-07T00:24:19;17.10;;;11.23;;
9970;SDS011;5026;51.494;11.974;2023-12-07T00:26:47;20.27;;;12.83;;
9970;SDS011;5026;51.494;11.974;2023-12-07T00:29:14;20.00;;;12.47;;
9970;SDS011;5026;51.494;11.974;2023-12-07T00:31:41;17.70;;;11.37;;
9970;SDS011;5026;51.494;11.974;2023-12-07T00:34:09;17.60;;;11.70;;
9970;SDS011;5026;51.494;11.974;2023-12-07T00:36:36;17.60;;;12.00;;
9970;SDS011;5026;51.494;11.974;2023-12-07T00:39:04;16.73;;;11.77;;
9970;SDS011;5026;51.494;11.974;2023-12-07T00:41:31;19.90;;;11.53;;
9970;SDS011;5026;51.494;11.974;2023-12-07T00:43:59;19.33;;;11.93;;
9970;SDS011;5026;51.494;11.974;2023-12-07T00:46:26;18.73;;;11.70;;
9970;SDS011;5026;51.494;11.974;2023-12-07T00:48:53;17.77;;;11.57;;
9970;SDS011;5026;51.494;11.974;2023-12-07T00:51:20;17.30;;;11.37;;
9970;SDS011;5026;51.494;11.974;2023-12-07T00:53:47;20.80;;;12.00;;
9970;SDS011;5026;51.494;11.974;2023-12-07T00:56:13;19.43;;;11.30;;
9970;SDS011;5026;51.494;11.974;2023-12-07T00:58:40;20.33;;;12.30;;
9970;SDS011;5026;51.494;11.974;2023-12-07T01:01:09;22.17;;;12.80;;
9970;SDS011;5026;51.494;11.974;2023-12-07T01:03:36;23.00;;;12.13;;
9970;SDS011;5026;51.494;11.974;2023-12-07T01:06:05;19.27;;;12.47;;
9970;SDS011;5026;51.494;11.974;2023-12-07T01:08:32;18.67;;;11.93;;
9970;SDS011;5026;51.494;11.974;2023-12-07T01:10:59;19.27;;;12.53;;
9970;SDS011;5026;51.494;11.974;2023-12-07T01:13:26;19.13;;;12.00;;
9970;SDS011;5026;51.494;11.974;2023-12-07T01:15:53;17.90;;;11.90;;
9970;SDS011;5026;51.494;11.974;2023-12-07T01:18:21;20.47;;;12.30;;
9970;SDS011;5026;51.494;11.974;2023-12-07T01:20:48;19.53;;;13.00;;
9970;SDS011;5026;51.494;11.974;2023-12-07T01:23:15;19.43;;;11.47;;
9970;SDS011;5026;51.494;11.974;2023-12-07T01:25:42;17.57;;;11.57;;
9970;SDS011;5026;51.494;11.974;2023-12-07T01:28:09;18.63;;;12.03;;
9970;SDS011;5026;51.494;11.974;2023-12-07T01:30:36;18.40;;;12.00;;
9970;SDS011;5026;51.494;11.974;2023-12-07T01:33:03;20.93;;;11.83;;
9970;SDS011;5026;51.494;11.974;2023-12-07T01:35:32;18.77;;;12.17;;
9970;SDS011;5026;51.494;11.974;2023-12-07T01:37:59;17.97;;;11.10;;
9970;SDS011;5026;51.494;11.974;2023-12-07T01:40:26;20.33;;;12.30;;
9970;SDS011;5026;51.494;11.974;2023-12-07T01:42:53;20.43;;;11.47;;
9970;SDS011;5026;51.494;11.974;2023-12-07T01:45:20;18.77;;;12.33;;
9970;SDS011;5026;51.494;11.974;2023-12-07T01:47:47;20.83;;;13.10;;
9970;SDS011;5026;51.494;11.974;2023-12-07T01:50:16;20.30;;;12.80;;
9970;SDS011;5026;51.494;11.974;2023-12-07T01:52:51;21.10;;;11.73;;
9970;SDS011;5026;51.494;11.974;2023-12-07T01:55:21;18.47;;;11.83;;
9970;SDS011;5026;51.494;11.974;2023-12-07T01:57:49;21.53;;;11.97;;
9970;SDS011;5026;51.494;11.974;2023-12-07T02:00:16;20.97;;;11.43;;
9970;SDS011;5026;51.494;11.974;2023-12-07T02:02:43;19.67;;;12.27;;
9970;SDS011;5026;51.494;11.974;2023-12-07T02:05:11;18.27;;;11.77;;
9970;SDS011;5026;51.494;11.974;2023-12-07T02:07:40;20.00;;;12.43;;
9970;SDS011;5026;51.494;11.974;2023-12-07T02:10:09;18.40;;;11.90;;
9970;SDS011;5026;51.494;11.974;2023-12-07T02:12:38;19.53;;;12.73;;
9970;SDS011;5026;51.494;11.974;2023-12-07T02:15:06;18.63;;;12.20;;
9970;SDS011;5026;51.494;11.974;2023-12-07T02:17:37;21.03;;;12.43;;
9970;SDS011;5026;51.494;11.974;2023-12-07T02:20:10;19.67;;;12.07;;
9970;SDS011;5026;51.494;11.974;2023-12-07T02:22:42;19.60;;;12.07;;
9970;SDS011;5026;51.494;11.974;2023-12-07T02:25:14;21.73;;;12.40;;
9970;SDS011;5026;51.494;11.974;2023-12-07T02:27:45;18.57;;;11.70;;
9970;SDS011;5026;51.494;11.974;2023-12-07T02:30:12;19.13;;;12.57;;
9970;SDS011;5026;51.494;11.974;2023-12-07T02:32:39;19.87;;;13.60;;
9970;SDS011;5026;51.494;11.974;2023-12-07T02:35:07;21.43;;;13.40;;
9970;SDS011;5026;51.494;11.974;2023-12-07T02:37:40;19.13;;;13.10;;
9970;SDS011;5026;51.494;11.974;2023-12-07T02:40:10;19.83;;;12.37;;
9970;SDS011;5026;51.494;11.974;2023-12-07T02:42:40;22.97;;;13.50;;
9970;SDS011;5026;51.494;11.974;2023-12-07T02:45:10;20.80;;;12.40;;
9970;SDS011;5026;51.494;11.974;2023-12-07T02:47:38;23.83;;;14.00;;
9970;SDS011;5026;51.494;11.974;2023-12-07T02:50:05;21.30;;;13.17;;
9970;SDS011;5026;51.494;11.974;2023-12-07T02:52:33;20.37;;;12.20;;
9970;SDS011;5026;51.494;11.974;2023-12-07T02:55:02;20.80;;;12.43;;
9970;SDS011;5026;51.494;11.974;2023-12-07T02:57:29;21.40;;;12.60;;
9970;SDS011;5026;51.494;11.974;2023-12-07T02:59:58;20.17;;;12.77;;
9970;SDS011;5026;51.494;11.974;2023-12-07T03:02:27;23.57;;;12.67;;
9970;SDS011;5026;51.494;11.974;2023-12-07T03:04:55;20.40;;;13.13;;
9970;SDS011;5026;51.494;11.974;2023-12-07T03:07:21;21.30;;;12.20;;
9970;SDS011;5026;51.494;11.974;2023-12-07T03:09:48;22.70;;;14.23;;
9970;SDS011;5026;51.494;11.974;2023-12-07T03:12:15;20.83;;;12.77;;
9970;SDS011;5026;51.494;11.974;2023-12-07T03:14:42;19.37;;;12.80;;
9970;SDS011;5026;51.494;11.974;2023-12-07T03:17:09;21.03;;;13.37;;
9970;SDS011;5026;51.494;11.974;2023-12-07T03:19:39;23.03;;;13.47;;
9970;SDS011;5026;51.494;11.974;2023-12-07T03:22:07;20.57;;;12.80;;
9970;SDS011;5026;51.494;11.974;2023-12-07T03:24:34;21.40;;;13.03;;
9970;SDS011;5026;51.494;11.974;2023-12-07T03:27:01;23.83;;;13.23;;
9970;SDS011;5026;51.494;11.974;2023-12-07T03:29:28;19.20;;;12.43;;
9970;SDS011;5026;51.494;11.974;2023-12-07T03:31:55;21.93;;;13.13;;
9970;SDS011;5026;51.494;11.974;2023-12-07T03:34:22;24.07;;;13.87;;
9970;SDS011;5026;51.494;11.974;2023-12-07T03:36:51;21.57;;;12.80;;
9970;SDS011;5026;51.494;11.974;2023-12-07T03:39:18;23.60;;;13.70;;
9970;SDS011;5026;51.494;11.974;2023-12-07T03:41:47;23.87;;;13.73;;
9970;SDS011;5026;51.494;11.974;2023-12-07T03:44:14;20.40;;;12.87;;
9970;SDS011;5026;51.494;11.974;2023-12-07T03:46:41;21.77;;;13.37;;
9970;SDS011;5026;51.494;11.974;2023-12-07T03:49:08;22.67;;;12.87;;
9970;SDS011;5026;51.494;11.974;2023-12-07T03:51:35;23.73;;;14.43;;
9970;SDS011;5026;51.494;11.974;2023-12-07T03:54:05;21.47;;;12.97;;
9970;SDS011;5026;51.494;11.974;2023-12-07T03:56:32;25.40;;;14.47;;
9970;SDS011;5026;51.494;11.974;2023-12-07T03:58:59;27.00;;;14.30;;
9970;SDS011;5026;51.494;11.974;2023-12-07T04:01:27;27.67;;;14.53;;
9970;SDS011;5026;51.494;11.974;2023-12-07T04:03:55;22.10;;;13.43;;
9970;SDS011;5026;51.494;11.974;2023-12-07T04:06:23;25.40;;;13.77;;
9970;SDS011;5026;51.494;11.974;2023-12-07T04:08:50;23.83;;;14.40;;
9970;SDS011;5026;51.494;11.974;2023-12-07T04:11:19;24.10;;;13.93;;
9970;SDS011;5026;51.494;11.974;2023-12-07T04:13:46;28.80;;;15.07;;
9970;SDS011;5026;51.494;11.974;2023-12-07T04:16:13;21.40;;;13.43;;
9970;SDS011;5026;51.494;11.974;2023-12-07T04:18:40;25.10;;;14.70;;
9970;SDS011;5026;51.494;11.974;2023-12-07T04:21:07;23.93;;;13.60;;
9970;SDS011;5026;51.494;11.974;2023-12-07T04:23:34;26.37;;;14.50;;
9970;SDS011;5026;51.494;11.974;2023-12-07T04:26:00;24.53;;;14.40;;
9970;SDS011;5026;51.494;11.974;2023-12-07T04:28:29;28.43;;;14.70;;
9970;SDS011;5026;51.494;11.974;2023-12-07T04:30:56;25.43;;;14.17;;
9970;SDS011;5026;51.494;11.974;2023-12-07T04:33:23;24.47;;;14.43;;
9970;SDS011;5026;51.494;11.974;2023-12-07T04:35:49;23.60;;;13.53;;
9970;SDS011;5026;51.494;11.974;2023-12-07T04:38:16;26.33;;;15.37;;
9970;SDS011;5026;51.494;11.974;2023-12-07T04:40:43;26.30;;;14.67;;
9970;SDS011;5026;51.494;11.974;2023-12-07T04:43:10;24.63;;;15.10;;
9970;SDS011;5026;51.494;11.974;2023-12-07T04:45:39;30.20;;;15.30;;
9970;SDS011;5026;51.494;11.974;2023-12-07T04:48:06;28.67;;;15.60;;
9970;SDS011;5026;51.494;11.974;2023-12-07T04:50:33;27.67;;;15.53;;
9970;SDS011;5026;51.494;11.974;2023-12-07T04:53:00;27.60;;;16.10;;
9970;SDS011;5026;51.494;11.974;2023-12-07T04:55:28;25.90;;;14.77;;
9970;SDS011;5026;51.494;11.974;2023-12-07T04:57:55;28.57;;;16.07;;
9970;SDS011;5026;51.494;11.974;2023-12-07T05:00:21;26.57;;;14.80;;
9970;SDS011;5026;51.494;11.974;2023-12-07T05:02:50;27.77;;;15.33;;
9970;SDS011;5026;51.494;11.974;2023-12-07T05:05:17;26.80;;;15.17;;
9970;SDS011;5026;51.494;11.974;2023-12-07T05:07:44;25.20;;;14.93;;
9970;SDS011;5026;51.494;11.974;2023-12-07T05:10:11;29.77;;;15.07;;
9970;SDS011;5026;51.494;11.974;2023-12-07T05:12:38;29.30;;;15.30;;
9970;SDS011;5026;51.494;11.974;2023-12-07T05:15:06;28.77;;;16.47;;
9970;SDS011;5026;51.494;11.974;2023-12-07T05:17:34;28.13;;;16.60;;
9970;SDS011;5026;51.494;11.974;2023-12-07T05:20:02;26.67;;;15.13;;
9970;SDS011;5026;51.494;11.974;2023-12-07T05:22:31;28.43;;;15.73;;
9970;SDS011;5026;51.494;11.974;2023-12-07T05:24:58;28.73;;;15.53;;
9970;SDS011;5026;51.494;11.974;2023-12-07T05:27:25;26.57;;;16.07;;
9970;SDS011;5026;51.494;11.974;2023-12-07T05:29:52;31.17;;;16.17;;
9970;SDS011;5026;51.494;11.974;2023-12-07T05:32:19;31.00;;;16.10;;
9970;SDS011;5026;51.494;11.974;2023-12-07T05:34:46;30.50;;;16.63;;
9970;SDS011;5026;51.494;11.974;2023-12-07T05:37:14;29.47;;;16.40;;
9970;SDS011;5026;51.494;11.974;2023-12-07T05:39:41;31.60;;;16.80;;
9970;SDS011;5026;51.494;11.974;2023-12-07T05:42:08;35.33;;;17.63;;
9970;SDS011;5026;51.494;11.974;2023-12-07T05:44:36;29.40;;;16.40;;
9970;SDS011;5026;51.494;11.974;2023-12-07T05:47:03;33.63;;;17.47;;
9970;SDS011;5026;51.494;11.974;2023-12-07T05:49:30;32.03;;;16.63;;
9970;SDS011;5026;51.494;11.974;2023-12-07T05:51:58;30.53;;;16.33;;
9970;SDS011;5026;51.494;11.974;2023-12-07T05:54:26;30.23;;;15.80;;
9970;SDS011;5026;51.494;11.974;2023-12-07T05:56:53;28.27;;;16.83;;
9970;SDS011;5026;51.494;11.974;2023-12-07T05:59:20;32.93;;;16.63;;
9970;SDS011;5026;51.494;11.974;2023-12-07T06:01:47;33.40;;;17.57;;
9970;SDS011;5026;51.494;11.974;2023-12-07T06:04:17;32.43;;;16.23;;
9970;SDS011;5026;51.494;11.974;2023-12-07T06:06:45;33.17;;;16.20;;
9970;SDS011;5026;51.494;11.974;2023-12-07T06:09:12;30.03;;;16.43;;
9970;SDS011;5026;51.494;11.974;2023-12-07T06:11:41;30.30;;;16.93;;
9970;SDS011;5026;51.494;11.974;2023-12-07T06:14:07;34.17;;;17.40;;
9970;SDS011;5026;51.494;11.974;2023-12-07T06:16:34;30.43;;;16.97;;
9970;SDS011;5026;51.494;11.974;2023-12-07T06:19:01;28.90;;;15.57;;
9970;SDS011;5026;51.494;11.974;2023-12-07T06:21:28;33.53;;;17.10;;
9970;SDS011;5026;51.494;11.974;2023-12-07T06:23:56;27.20;;;15.17;;
9970;SDS011;5026;51.494;11.974;2023-12-07T06:26:23;30.40;;;16.97;;
9970;SDS011;5026;51.494;11.974;2023-12-07T06:28:52;29.63;;;15.80;;
9970;SDS011;5026;51.494;11.974;2023-12-07T06:31:19;31.07;;;16.30;;
9970;SDS011;5026;51.494;11.974;2023-12-07T06:33:46;30.93;;;16.37;;
9970;SDS011;5026;51.494;11.974;2023-12-07T06:36:17;28.87;;;16.47;;
9970;SDS011;5026;51.494;11.974;2023-12-07T06:38:45;32.53;;;16.17;;
9970;SDS011;5026;51.494;11.974;2023-12-07T06:41:12;32.03;;;16.07;;
9970;SDS011;5026;51.494;11.974;2023-12-07T06:43:40;29.97;;;15.77;;
9970;SDS011;5026;51.494;11.974;2023-12-07T06:46:10;26.30;;;14.90;;
9970;SDS011;5026;51.494;11.974;2023-12-07T06:48:37;29.13;;;14.90;;
9970;SDS011;5026;51.494;11.974;2023-12-07T06:51:04;26.63;;;14.93;;
9970;SDS011;5026;51.494;11.974;2023-12-07T06:53:31;30.10;;;16.63;;
9970;SDS011;5026;51.494;11.974;2023-12-07T06:55:58;29.53;;;16.30;;
9970;SDS011;5026;51.494;11.974;2023-12-07T06:58:25;29.03;;;15.93;;
9970;SDS011;5026;51.494;11.974;2023-12-07T07:00:52;30.83;;;15.90;;
9970;SDS011;5026;51.494;11.974;2023-12-07T07:03:21;29.67;;;16.23;;
9970;SDS011;5026;51.494;11.974;2023-12-07T07:05:48;28.30;;;14.50;;
9970;SDS011;5026;51.494;11.974;2023-12-07T07:08:15;30.50;;;16.00;;
9970;SDS011;5026;51.494;11.974;2023-12-07T07:10:43;29.87;;;16.03;;
9970;SDS011;5026;51.494;11.974;2023-12-07T07:13:10;29.07;;;16.23;;
9970;SDS011;5026;51.494;11.974;2023-12-07T07:15:38;29.27;;;14.87;;
9970;SDS011;5026;51.494;11.974;2023-12-07T07:18:04;30.30;;;15.07;;
9970;SDS011;5026;51.494;11.974;2023-12-07T07:20:33;29.57;;;15.90;;
9970;SDS011;5026;51.494;11.974;2023-12-07T07:23:00;28.70;;;15.60;;
9970;SDS011;5026;51.494;11.974;2023-12-07T07:25:27;31.30;;;15.43;;
9970;SDS011;5026;51.494;11.974;2023-12-07T07:27:54;30.47;;;16.07;;
9970;SDS011;5026;51.494;11.974;2023-12-07T07:30:20;30.63;;;15.73;;
9970;SDS011;5026;51.494;11.974;2023-12-07T07:32:48;33.53;;;17.33;;
9970;SDS011;5026;51.494;11.974;2023-12-07T07:35:15;31.83;;;15.17;;
9970;SDS011;5026;51.494;11.974;2023-12-07T07:37:43;28.13;;;15.57;;
9970;SDS011;5026;51.494;11.974;2023-12-07T07:40:11;30.13;;;16.37;;
9970;SDS011;5026;51.494;11.974;2023-12-07T07:42:38;30.83;;;16.00;;
9970;SDS011;5026;51.494;11.974;2023-12-07T07:45:06;34.10;;;16.63;;
9970;SDS011;5026;51.494;11.974;2023-12-07T07:47:34;34.10;;;16.37;;
9970;SDS011;5026;51.494;11.974;2023-12-07T07:50:01;26.20;;;14.77;;
9970;SDS011;5026;51.494;11.974;2023-12-07T07:52:30;28.83;;;15.87;;
9970;SDS011;5026;51.494;11.974;2023-12-07T07:55:00;28.23;;;15.60;;
9970;SDS011;5026;51.494;11.974;2023-12-07T07:57:27;27.27;;;15.90;;
9970;SDS011;5026;51.494;11.974;2023-12-07T07:59:55;31.80;;;14.67;;
9970;SDS011;5026;51.494;11.974;2023-12-07T08:02:22;26.27;;;14.53;;
9970;SDS011;5026;51.494;11.974;2023-12-07T08:04:49;29.80;;;16.70;;
9970;SDS011;5026;51.494;11.974;2023-12-07T08:07:17;28.80;;;15.40;;
9970;SDS011;5026;51.494;11.974;2023-12-07T08:09:44;24.17;;;14.37;;
9970;SDS011;5026;51.494;11.974;2023-12-07T08:12:14;25.63;;;14.67;;
9970;SDS011;5026;51.494;11.974;2023-12-07T08:14:41;25.83;;;13.30;;
9970;SDS011;5026;51.494;11.974;2023-12-07T08:17:09;24.10;;;14.33;;
9970;SDS011;5026;51.494;11.974;2023-12-07T08:19:37;21.37;;;12.90;;
9970;SDS011;5026;51.494;11.974;2023-12-07T08:22:04;22.30;;;13.37;;
9970;SDS011;5026;51.494;11.974;2023-12-07T08:24:31;22.70;;;13.67;;
9970;SDS011;5026;51.494;11.974;2023-12-07T08:26:58;23.40;;;13.53;;
9970;SDS011;5026;51.494;11.974;2023-12-07T08:29:26;22.83;;;13.47;;
9970;SDS011;5026;51.494;11.974;2023-12-07T08:31:53;24.37;;;13.67;;
9970;SDS011;5026;51.494;11.974;2023-12-07T08:34:21;23.60;;;13.00;;
9970;SDS011;5026;51.494;11.974;2023-12-07T08:36:48;22.47;;;13.77;;
9970;SDS011;5026;51.494;11.974;2023-12-07T08:39:16;20.60;;;12.47;;
9970;SDS011;5026;51.494;11.974;2023-12-07T08:41:43;23.10;;;13.17;;
9970;SDS011;5026;51.494;11.974;2023-12-07T08:44:09;26.53;;;15.17;;
9970;SDS011;5026;51.494;11.974;2023-12-07T08:46:38;21.90;;;11.93;;
9970;SDS011;5026;51.494;11.974;2023-12-07T08:49:08;22.77;;;13.23;;
9970;SDS011;5026;51.494;11.974;2023-12-07T08:51:35;22.00;;;12.73;;
9970;SDS011;5026;51.494;11.974;2023-12-07T08:54:02;22.80;;;13.43;;
9970;SDS011;5026;51.494;11.974;2023-12-07T08:56:30;21.33;;;13.10;;
9970;SDS011;5026;51.494;11.974;2023-12-07T08:58:57;23.53;;;12.97;;
9970;SDS011;5026;51.494;11.974;2023-12-07T09:01:24;19.13;;;12.33;;
9970;SDS011;5026;51.494;11.974;2023-12-07T09:03:53;21.50;;;12.67;;
9970;SDS011;5026;51.494;11.974;2023-12-07T09:06:20;25.87;;;12.53;;
9970;SDS011;5026;51.494;11.974;2023-12-07T09:08:47;20.70;;;12.63;;
9970;SDS011;5026;51.494;11.974;2023-12-07T09:11:14;22.10;;;12.80;;
9970;SDS011;5026;51.494;11.974;2023-12-07T09:13:41;22.90;;;13.37;;
9970;SDS011;5026;51.494;11.974;2023-12-07T09:16:08;22.97;;;12.93;;
9970;SDS011;5026;51.494;11.974;2023-12-07T09:18:35;20.33;;;12.30;;
9970;SDS011;5026;51.494;11.974;2023-12-07T09:21:04;20.87;;;12.60;;
9970;SDS011;5026;51.494;11.974;2023-12-07T09:23:31;21.43;;;12.27;;
9970;SDS011;5026;51.494;11.974;2023-12-07T09:25:59;20.53;;;12.57;;
9970;SDS011;5026;51.494;11.974;2023-12-07T09:28:28;20.67;;;12.47;;
9970;SDS011;5026;51.494;11.974;2023-12-07T09:30:55;22.67;;;13.20;;
9970;SDS011;5026;51.494;11.974;2023-12-07T09:33:22;23.53;;;13.10;;
9970;SDS011;5026;51.494;11.974;2023-12-07T09:35:49;21.57;;;12.73;;
9970;SDS011;5026;51.494;11.974;2023-12-07T09:38:18;26.37;;;13.50;;
9970;SDS011;5026;51.494;11.974;2023-12-07T09:40:45;26.83;;;14.10;;
9970;SDS011;5026;51.494;11.974;2023-12-07T09:43:13;21.43;;;13.33;;
9970;SDS011;5026;51.494;11.974;2023-12-07T09:45:42;25.63;;;14.17;;
9970;SDS011;5026;51.494;11.974;2023-12-07T09:48:11;26.07;;;13.50;;
9970;SDS011;5026;51.494;11.974;2023-12-07T09:50:38;24.50;;;13.13;;
9970;SDS011;5026;51.494;11.974;2023-12-07T09:53:07;20.30;;;12.30;;
9970;SDS011;5026;51.494;11.974;2023-12-07T09:55:36;20.03;;;12.50;;
9970;SDS011;5026;51.494;11.974;2023-12-07T09:58:03;23.87;;;13.60;;
9970;SDS011;5026;51.494;11.974;2023-12-07T10:00:30;23.77;;;13.07;;
9970;SDS011;5026;51.494;11.974;2023-12-07T10:02:58;27.07;;;13.90;;
9970;SDS011;5026;51.494;11.974;2023-12-07T10:05:25;27.33;;;14.10;;
9970;SDS011;5026;51.494;11.974;2023-12-07T10:07:52;24.47;;;13.03;;
9970;SDS011;5026;51.494;11.974;2023-12-07T10:10:19;22.37;;;13.87;;
9970;SDS011;5026;51.494;11.974;2023-12-07T10:12:48;27.37;;;14.53;;
9970;SDS011;5026;51.494;11.974;2023-12-07T10:15:18;27.90;;;14.57;;
9970;SDS011;5026;51.494;11.974;2023-12-07T10:17:47;23.70;;;13.90;;
9970;SDS011;5026;51.494;11.974;2023-12-07T10:20:16;21.40;;;13.47;;
9970;SDS011;5026;51.494;11.974;2023-12-07T10:22:44;23.13;;;13.90;;
9970;SDS011;5026;51.494;11.974;2023-12-07T10:25:12;26.70;;;14.87;;
9970;SDS011;5026;51.494;11.974;2023-12-07T10:27:40;25.00;;;13.83;;
9970;SDS011;5026;51.494;11.974;2023-12-07T10:30:11;25.97;;;14.43;;
9970;SDS011;5026;51.494;11.974;2023-12-07T10:32:38;24.53;;;13.27;;
9970;SDS011;5026;51.494;11.974;2023-12-07T10:35:06;26.97;;;13.83;;
9970;SDS011;5026;51.494;11.974;2023-12-07T10:37:35;23.10;;;13.77;;
9970;SDS011;5026;51.494;11.974;2023-12-07T10:40:02;23.07;;;14.20;;
9970;SDS011;5026;51.494;11.974;2023-12-07T10:42:33;25.03;;;13.60;;
9970;SDS011;5026;51.494;11.974;2023-12-07T10:45:05;23.10;;;13.60;;
9970;SDS011;5026;51.494;11.974;2023-12-07T10:47:35;26.37;;;13.57;;
9970;SDS011;5026;51.494;11.974;2023-12-07T10:50:04;20.67;;;13.73;;
9970;SDS011;5026;51.494;11.974;2023-12-07T10:52:36;23.97;;;13.57;;
9970;SDS011;5026;51.494;11.974;2023-12-07T10:55:16;21.07;;;12.80;;
9970;SDS011;5026;51.494;11.974;2023-12-07T10:57:46;23.33;;;13.33;;
9970;SDS011;5026;51.494;11.974;2023-12-07T11:00:14;22.83;;;13.07;;
9970;SDS011;5026;51.494;11.974;2023-12-07T11:02:42;20.87;;;12.73;;
9970;SDS011;5026;51.494;11.974;2023-12-07T11:05:11;25.40;;;14.00;;
9970;SDS011;5026;51.494;11.974;2023-12-07T11:07:40;25.17;;;13.70;;
9970;SDS011;5026;51.494;11.974;2023-12-07T11:10:15;23.13;;;13.40;;
9970;SDS011;5026;51.494;11.974;2023-12-07T11:12:49;27.63;;;16.00;;
9970;SDS011;5026;51.494;11.974;2023-12-07T11:15:21;23.90;;;13.10;;
9970;SDS011;5026;51.494;11.974;2023-12-07T11:17:51;20.77;;;12.70;;
9970;SDS011;5026;51.494;11.974;2023-12-07T11:20:20;22.33;;;13.27;;
9970;SDS011;5026;51.494;11.974;2023-12-07T11:22:47;23.10;;;13.87;;
9970;SDS011;5026;51.494;11.974;2023-12-07T11:25:15;21.33;;;12.67;;
9970;SDS011;5026;51.494;11.974;2023-12-07T11:27:45;22.53;;;13.30;;
9970;SDS011;5026;51.494;11.974;2023-12-07T11:30:16;21.47;;;12.73;;
9970;SDS011;5026;51.494;11.974;2023-12-07T11:32:44;18.93;;;12.40;;
9970;SDS011;5026;51.494;11.974;2023-12-07T11:35:13;19.97;;;11.97;;
9970;SDS011;5026;51.494;11.974;2023-12-07T11:38:00;22.70;;;13.70;;
9970;SDS011;5026;51.494;11.974;2023-12-07T11:40:29;21.57;;;12.13;;
9970;SDS011;5026;51.494;11.974;2023-12-07T11:42:56;19.50;;;12.47;;
9970;SDS011;5026;51.494;11.974;2023-12-07T11:45:37;23.77;;;12.53;;
9970;SDS011;5026;51.494;11.974;2023-12-07T11:48:09;20.83;;;12.90;;
9970;SDS011;5026;51.494;11.974;2023-12-07T11:50:54;21.30;;;12.53;;
9970;SDS011;5026;51.494;11.974;2023-12-07T11:53:22;18.73;;;11.50;;
9970;SDS011;5026;51.494;11.974;2023-12-07T11:55:50;20.77;;;11.90;;
9970;SDS011;5026;51.494;11.974;2023-12-07T11:58:17;19.80;;;11.77;;
9970;SDS011;5026;51.494;11.974;2023-12-07T12:00:45;19.77;;;12.10;;
9970;SDS011;5026;51.494;11.974;2023-12-07T12:03:12;16.80;;;10.97;;
9970;SDS011;5026;51.494;11.974;2023-12-07T12:05:42;17.57;;;11.43;;
9970;SDS011;5026;51.494;11.974;2023-12-07T12:08:11;20.43;;;12.30;;
9970;SDS011;5026;51.494;11.974;2023-12-07T12:10:40;20.00;;;12.23;;
9970;SDS011;5026;51.494;11.974;2023-12-07T12:13:08;18.77;;;11.70;;
9970;SDS011;5026;51.494;11.974;2023-12-07T12:15:35;19.33;;;11.33;;
9970;SDS011;5026;51.494;11.974;2023-12-07T12:18:02;19.67;;;11.70;;
9970;SDS011;5026;51.494;11.974;2023-12-07T12:20:29;18.23;;;11.40;;
9970;SDS011;5026;51.494;11.974;2023-12-07T12:22:57;18.90;;;11.93;;
9970;SDS011;5026;51.494;11.974;2023-12-07T12:25:27;18.93;;;11.37;;
9970;SDS011;5026;51.494;11.974;2023-12-07T12:27:55;20.77;;;11.60;;
9970;SDS011;5026;51.494;11.974;2023-12-07T12:30:24;21.57;;;12.47;;
9970;SDS011;5026;51.494;11.974;2023-12-07T12:32:51;21.73;;;12.93;;
9970;SDS011;5026;51.494;11.974;2023-12-07T12:35:18;20.00;;;12.33;;
9970;SDS011;5026;51.494;11.974;2023-12-07T12:37:46;18.07;;;11.33;;
9970;SDS011;5026;51.494;11.974;2023-12-07T12:40:14;22.97;;;12.57;;
9970;SDS011;5026;51.494;11.974;2023-12-07T12:42:45;23.87;;;11.77;;
9970;SDS011;5026;51.494;11.974;2023-12-07T12:45:13;20.50;;;11.63;;
9970;SDS011;5026;51.494;11.974;2023-12-07T12:47:40;19.13;;;12.53;;
9970;SDS011;5026;51.494;11.974;2023-12-07T12:50:08;18.10;;;12.07;;
9970;SDS011;5026;51.494;11.974;2023-12-07T12:52:36;21.20;;;12.17;;
9970;SDS011;5026;51.494;11.974;2023-12-07T12:55:06;20.07;;;12.33;;
9970;SDS011;5026;51.494;11.974;2023-12-07T12:57:35;18.87;;;11.07;;
9970;SDS011;5026;51.494;11.974;2023-12-07T13:00:05;20.93;;;11.50;;
9970;SDS011;5026;51.494;11.974;2023-12-07T13:02:33;16.30;;;10.40;;
9970;SDS011;5026;51.494;11.974;2023-12-07T13:05:00;19.93;;;11.83;;
9970;SDS011;5026;51.494;11.974;2023-12-07T13:07:27;19.17;;;10.53;;
9970;SDS011;5026;51.494;11.974;2023-12-07T13:09:54;17.20;;;11.57;;
9970;SDS011;5026;51.494;11.974;2023-12-07T13:12:21;15.80;;;10.43;;
9970;SDS011;5026;51.494;11.974;2023-12-07T13:14:48;18.37;;;10.07;;
9970;SDS011;5026;51.494;11.974;2023-12-07T13:17:17;16.27;;;10.37;;
9970;SDS011;5026;51.494;11.974;2023-12-07T13:19:43;18.50;;;10.70;;
9970;SDS011;5026;51.494;11.974;2023-12-07T13:22:10;20.60;;;11.23;;
9970;SDS011;5026;51.494;11.974;2023-12-07T13:24:37;17.97;;;10.60;;
9970;SDS011;5026;51.494;11.974;2023-12-07T13:27:04;16.83;;;10.30;;
9970;SDS011;5026;51.494;11.974;2023-12-07T13:29:31;15.27;;;9.97;;
9970;SDS011;5026;51.494;11.974;2023-12-07T13:31:58;15.27;;;9.93;;
9970;SDS011;5026;51.494;11.974;2023-12-07T13:34:27;15.97;;;9.67;;
9970;SDS011;5026;51.494;11.974;2023-12-07T13:36:53;13.17;;;8.90;;
9970;SDS011;5026;51.494;11.974;2023-12-07T13:39:20;18.77;;;10.27;;
9970;SDS011;5026;51.494;11.974;2023-12-07T13:41:48;16.07;;;9.93;;
9970;SDS011;5026;51.494;11.974;2023-12-07T13:44:15;12.53;;;8.07;;
9970;SDS011;5026;51.494;11.974;2023-12-07T13:46:43;13.23;;;7.97;;
9970;SDS011;5026;51.494;11.974;2023-12-07T13:49:11;11.20;;;7.80;;
9970;SDS011;5026;51.494;11.974;2023-12-07T13:51:40;13.50;;;8.20;;
9970;SDS011;5026;51.494;11.974;2023-12-07T13:54:08;11.33;;;7.50;;
9970;SDS011;5026;51.494;11.974;2023-12-07T13:56:35;11.67;;;7.40;;
9970;SDS011;5026;51.494;11.974;2023-12-07T13:59:02;15.50;;;8.70;;
9970;SDS011;5026;51.494;11.974;2023-12-07T14:01:31;15.70;;;7.93;;
9970;SDS011;5026;51.494;11.974;2023-12-07T14:03:58;12.33;;;8.10;;
9970;SDS011;5026;51.494;11.974;2023-12-07T14:06:27;11.77;;;8.13;;
9970;SDS011;5026;51.494;11.974;2023-12-07T14:08:55;11.67;;;7.27;;
9970;SDS011;5026;51.494;11.974;2023-12-07T14:11:22;12.77;;;7.77;;
9970;SDS011;5026;51.494;11.974;2023-12-07T14:13:49;12.73;;;7.73;;
9970;SDS011;5026;51.494;11.974;2023-12-07T14:16:19;13.90;;;8.00;;
9970;SDS011;5026;51.494;11.974;2023-12-07T14:18:46;14.23;;;7.40;;
9970;SDS011;5026;51.494;11.974;2023-12-07T14:21:13;11.23;;;7.63;;
9970;SDS011;5026;51.494;11.974;2023-12-07T14:23:45;12.67;;;7.30;;
9970;SDS011;5026;51.494;11.974;2023-12-07T14:26:14;12.77;;;7.20;;
9970;SDS011;5026;51.494;11.974;2023-12-07T14:28:41;12.33;;;7.70;;
9970;SDS011;5026;51.494;11.974;2023-12-07T14:31:07;13.33;;;7.50;;
9970;SDS011;5026;51.494;11.974;2023-12-07T14:33:41;15.23;;;8.73;;
9970;SDS011;5026;51.494;11.974;2023-12-07T14:36:09;13.13;;;8.17;;
9970;SDS011;5026;51.494;11.974;2023-12-07T14:38:37;14.27;;;8.53;;
9970;SDS011;5026;51.494;11.974;2023-12-07T14:41:05;11.60;;;7.37;;